createdAt,value
2018-09-06T00:01:44.897Z,37.83
2018-09-06T00:04:13.607Z,30.70
2018-09-06T00:06:42.406Z,34.43
2018-09-06T00:09:11.211Z,34.37
2018-09-06T00:11:39.954Z,27.20
2018-09-06T00:14:08.806Z,31.03
2018-09-06T00:16:37.464Z,28.60
2018-09-06T00:19:06.657Z,29.50
2018-09-06T00:21:35.458Z,34.67
2018-09-06T00:24:04.203Z,34.80
2018-09-06T00:26:32.859Z,33.23
2018-09-06T00:29:01.555Z,32.37
2018-09-06T00:31:30.685Z,40.00
2018-09-06T00:33:59.547Z,36.17
2018-09-06T00:36:28.190Z,32.87
2018-09-06T00:38:57.186Z,38.17
2018-09-06T00:41:25.835Z,40.63
2018-09-06T00:43:54.509Z,32.97
2018-09-06T00:46:23.220Z,30.43
2018-09-06T00:48:52.025Z,33.57
2018-09-06T00:51:21.125Z,30.83
2018-09-06T00:53:49.966Z,31.03
2018-09-06T00:56:18.650Z,32.83
2018-09-06T00:58:47.413Z,29.73
2018-09-06T01:01:16.073Z,30.90
2018-09-06T01:03:44.839Z,34.47
2018-09-06T01:06:13.486Z,32.00
2018-09-06T01:08:42.229Z,33.47
2018-09-06T01:11:11.085Z,34.60
2018-09-06T01:13:39.765Z,28.10
2018-09-06T01:16:09.341Z,31.30
2018-09-06T01:18:38.181Z,30.40
2018-09-06T01:21:07.465Z,32.03
2018-09-06T01:23:36.210Z,32.93
2018-09-06T01:26:04.937Z,30.80
2018-09-06T01:28:33.641Z,35.33
2018-09-06T01:31:02.418Z,28.93
2018-09-06T01:33:31.194Z,29.43
2018-09-06T01:36:04.989Z,30.80
2018-09-06T01:38:33.736Z,34.07
2018-09-06T01:41:02.482Z,29.90
2018-09-06T01:43:31.152Z,35.40
2018-09-06T01:46:00.034Z,32.90
2018-09-06T01:48:28.786Z,29.40
2018-09-06T01:50:57.901Z,31.23
2018-09-06T01:53:26.629Z,31.97
2018-09-06T01:55:55.269Z,29.17
2018-09-06T01:58:23.945Z,33.10
2018-09-06T02:00:52.590Z,33.53
2018-09-06T02:03:21.620Z,29.93
2018-09-06T02:05:50.294Z,30.80
2018-09-06T02:08:19.019Z,27.60
2018-09-06T02:10:47.769Z,30.90
2018-09-06T02:13:16.540Z,31.67
2018-09-06T02:15:45.305Z,28.63
2018-09-06T02:18:14.101Z,32.53
2018-09-06T02:20:42.754Z,29.80
2018-09-06T02:23:11.444Z,28.17
2018-09-06T02:25:40.235Z,35.07
2018-09-06T02:28:09.422Z,30.53
2018-09-06T02:30:38.260Z,31.70
2018-09-06T02:33:06.989Z,28.40
2018-09-06T02:35:35.810Z,32.00
2018-09-06T02:38:04.481Z,31.67
2018-09-06T02:40:40.109Z,32.60
2018-09-06T02:43:11.250Z,31.43
2018-09-06T02:45:40.972Z,31.90
2018-09-06T02:48:09.712Z,28.70
2018-09-06T02:50:43.861Z,33.57
2018-09-06T02:53:12.894Z,30.83
2018-09-06T02:55:41.997Z,32.50
2018-09-06T02:58:10.738Z,30.40
2018-09-06T03:00:39.897Z,35.47
2018-09-06T03:03:08.833Z,30.90
2018-09-06T03:05:37.552Z,33.67
2018-09-06T03:08:06.271Z,36.00
2018-09-06T03:10:43.070Z,39.57
2018-09-06T03:13:11.853Z,46.23
2018-09-06T03:15:41.224Z,30.83
2018-09-06T03:18:10.204Z,36.73
2018-09-06T03:20:39.051Z,32.03
2018-09-06T03:23:07.785Z,37.40
2018-09-06T03:25:36.499Z,30.93
2018-09-06T03:28:06.119Z,31.87
2018-09-06T03:30:35.043Z,35.47
2018-09-06T03:33:04.112Z,37.40
2018-09-06T03:35:32.805Z,31.40
2018-09-06T03:38:01.708Z,34.77
2018-09-06T03:40:30.700Z,38.07
2018-09-06T03:42:59.365Z,41.87
2018-09-06T03:45:28.106Z,33.40
2018-09-06T03:47:56.869Z,32.63
2018-09-06T03:50:25.563Z,28.43
2018-09-06T03:52:54.358Z,32.73
2018-09-06T03:55:23.765Z,33.13
2018-09-06T03:57:52.579Z,30.23
2018-09-06T04:00:21.463Z,33.97
2018-09-06T04:02:50.269Z,28.17
2018-09-06T04:05:19.330Z,28.40
2018-09-06T04:07:48.066Z,28.00
2018-09-06T04:10:16.803Z,28.73
2018-09-06T04:12:45.789Z,27.83
2018-09-06T04:15:14.579Z,29.17
2018-09-06T04:17:43.470Z,28.13
2018-09-06T04:20:12.126Z,29.10
2018-09-06T04:22:45.567Z,32.67
2018-09-06T04:25:14.433Z,34.70
2018-09-06T04:27:43.275Z,35.30
2018-09-06T04:30:12.212Z,29.57
2018-09-06T04:32:40.945Z,32.20
2018-09-06T04:35:10.009Z,34.50
2018-09-06T04:37:38.754Z,27.50
2018-09-06T04:40:07.861Z,28.70
2018-09-06T04:42:36.770Z,24.93
2018-09-06T04:45:05.960Z,29.07
2018-09-06T04:47:34.662Z,26.83
2018-09-06T04:50:03.434Z,24.90
2018-09-06T04:52:32.182Z,32.13
2018-09-06T04:55:00.918Z,30.97
2018-09-06T04:57:29.562Z,27.77
2018-09-06T04:59:58.301Z,25.77
2018-09-06T05:02:26.926Z,25.57
2018-09-06T05:04:55.679Z,31.37
2018-09-06T05:07:24.562Z,32.10
2018-09-06T05:09:53.260Z,30.63
2018-09-06T05:12:22.018Z,30.27
2018-09-06T05:14:50.846Z,32.30
2018-09-06T05:17:19.495Z,41.23
2018-09-06T05:19:48.229Z,29.50
2018-09-06T05:22:16.924Z,34.17
2018-09-06T05:24:45.881Z,31.50
2018-09-06T05:27:14.729Z,26.90
2018-09-06T05:29:43.421Z,23.83
2018-09-06T05:32:12.449Z,32.07
2018-09-06T05:34:41.281Z,27.73
2018-09-06T05:37:10.059Z,25.77
2018-09-06T05:39:38.842Z,24.73
2018-09-06T05:42:07.501Z,29.10
2018-09-06T05:44:36.431Z,27.83
2018-09-06T05:47:05.188Z,30.73
2018-09-06T05:49:34.014Z,32.73
2018-09-06T05:52:02.834Z,31.70
2018-09-06T05:54:31.746Z,40.30
2018-09-06T05:57:00.968Z,34.80
2018-09-06T05:59:29.640Z,31.93
2018-09-06T06:01:58.329Z,31.00
2018-09-06T06:04:27.013Z,32.60
2018-09-06T06:06:55.814Z,42.27
2018-09-06T06:09:24.614Z,28.83
2018-09-06T06:11:53.747Z,32.03
2018-09-06T06:14:22.587Z,34.23
2018-09-06T06:16:52.380Z,28.43
2018-09-06T06:19:21.155Z,37.50
2018-09-06T06:21:50.085Z,41.07
2018-09-06T06:24:18.790Z,30.67
2018-09-06T06:26:47.847Z,35.03
2018-09-06T06:29:16.622Z,32.60
2018-09-06T06:31:45.690Z,30.10
2018-09-06T06:34:14.515Z,32.83
2018-09-06T06:36:43.385Z,44.20
2018-09-06T06:39:13.654Z,33.00
2018-09-06T06:41:42.428Z,48.97
2018-09-06T06:44:11.729Z,33.07
2018-09-06T06:46:40.473Z,35.37
2018-09-06T06:49:09.136Z,42.40
2018-09-06T06:51:37.760Z,34.43
2018-09-06T06:54:06.741Z,47.03
2018-09-06T06:56:35.639Z,34.20
2018-09-06T06:59:04.722Z,27.73
2018-09-06T07:01:33.442Z,33.10
2018-09-06T07:04:02.415Z,37.10
2018-09-06T07:06:31.149Z,28.47
2018-09-06T07:09:00.007Z,41.17
2018-09-06T07:11:28.929Z,39.17
2018-09-06T07:13:57.805Z,32.17
2018-09-06T07:16:26.509Z,33.30
2018-09-06T07:18:55.506Z,38.27
2018-09-06T07:21:24.305Z,38.83
2018-09-06T07:23:53.191Z,36.40
2018-09-06T07:26:21.938Z,32.87
2018-09-06T07:28:50.714Z,30.80
2018-09-06T07:31:19.640Z,31.50
2018-09-06T07:33:48.424Z,33.60
2018-09-06T07:36:17.125Z,30.90
2018-09-06T07:38:45.825Z,29.43
2018-09-06T07:41:14.499Z,40.10
2018-09-06T07:43:43.175Z,33.23
2018-09-06T07:46:11.875Z,36.30
2018-09-06T07:48:41.065Z,28.03
2018-09-06T07:51:09.817Z,29.33
2018-09-06T07:53:38.755Z,35.37
2018-09-06T07:56:07.937Z,33.73
2018-09-06T07:58:36.742Z,28.27
2018-09-06T08:01:05.690Z,31.00
2018-09-06T08:03:34.445Z,30.50
2018-09-06T08:06:03.401Z,25.23
2018-09-06T08:08:32.324Z,27.40
2018-09-06T08:11:01.064Z,29.33
2018-09-06T08:13:30.613Z,48.23
2018-09-06T08:15:59.355Z,36.07
2018-09-06T08:18:28.045Z,29.00
2018-09-06T08:20:56.773Z,31.40
2018-09-06T08:23:25.570Z,29.50
2018-09-06T08:25:54.546Z,30.03
2018-09-06T08:28:23.273Z,32.50
2018-09-06T08:30:52.079Z,40.50
2018-09-06T08:33:20.856Z,28.77
2018-09-06T08:35:49.573Z,31.80
2018-09-06T08:38:18.393Z,38.43
2018-09-06T08:40:47.137Z,34.37
2018-09-06T08:43:15.897Z,39.53
2018-09-06T08:45:44.744Z,28.50
2018-09-06T08:48:13.643Z,24.60
2018-09-06T08:50:42.537Z,25.50
2018-09-06T08:53:11.268Z,26.70
2018-09-06T08:55:39.999Z,24.63
2018-09-06T08:58:08.831Z,26.53
2018-09-06T09:00:40.937Z,26.73
2018-09-06T09:03:10.999Z,23.10
2018-09-06T09:05:39.742Z,29.70
2018-09-06T09:08:08.438Z,21.57
2018-09-06T09:10:37.242Z,20.60
2018-09-06T09:13:06.292Z,30.00
2018-09-06T09:15:35.051Z,24.60
2018-09-06T09:18:03.784Z,24.10
2018-09-06T09:20:32.685Z,32.23
2018-09-06T09:23:01.606Z,24.33
2018-09-06T09:25:30.409Z,25.40
2018-09-06T09:27:59.278Z,18.73
2018-09-06T09:30:28.192Z,22.37
2018-09-06T09:32:57.275Z,18.00
2018-09-06T09:35:26.095Z,21.30
2018-09-06T09:37:54.886Z,21.23
2018-09-06T09:40:23.633Z,23.67
2018-09-06T09:42:52.330Z,20.47
2018-09-06T09:45:21.220Z,18.00
2018-09-06T09:47:49.999Z,19.03
2018-09-06T09:52:46.785Z,20.67
2018-09-06T09:55:15.465Z,15.90
2018-09-06T09:57:44.314Z,15.67
2018-09-06T10:00:13.050Z,13.90
2018-09-06T10:02:46.933Z,15.67
2018-09-06T10:05:20.782Z,16.13
2018-09-06T10:07:57.926Z,15.10
2018-09-06T10:10:27.421Z,15.10
2018-09-06T10:12:56.221Z,14.80
2018-09-06T10:15:25.002Z,16.30
2018-09-06T10:18:00.598Z,18.00
2018-09-06T10:20:29.729Z,17.97
2018-09-06T10:22:58.500Z,12.73
2018-09-06T10:25:27.395Z,15.20
2018-09-06T10:27:56.202Z,17.40
2018-09-06T10:30:25.129Z,11.77
2018-09-06T10:32:53.957Z,14.40
2018-09-06T10:35:22.812Z,17.17
2018-09-06T10:37:51.495Z,13.07
2018-09-06T10:40:20.210Z,23.90
2018-09-06T10:42:49.006Z,12.67
2018-09-06T10:45:17.736Z,12.40
2018-09-06T10:47:46.514Z,13.80
2018-09-06T10:50:15.318Z,14.60
2018-09-06T10:52:44.250Z,13.70
2018-09-06T10:55:13.110Z,13.90
2018-09-06T10:57:41.814Z,13.33
2018-09-06T11:00:10.663Z,14.60
2018-09-06T11:02:39.506Z,18.70
2018-09-06T11:05:08.378Z,14.57
2018-09-06T11:07:37.107Z,17.33
2018-09-06T11:10:06.019Z,14.10
2018-09-06T11:12:35.000Z,11.10
2018-09-06T11:15:03.727Z,12.33
2018-09-06T11:17:32.750Z,13.17
2018-09-06T11:20:01.570Z,12.40
2018-09-06T11:22:30.461Z,16.93
2018-09-06T11:24:59.200Z,13.10
2018-09-06T11:27:28.499Z,13.50
2018-09-06T11:29:57.038Z,17.70
2018-09-06T11:32:25.967Z,11.00
2018-09-06T11:34:55.355Z,12.23
2018-09-06T11:37:24.065Z,14.20
2018-09-06T11:39:52.928Z,11.67
2018-09-06T11:42:21.596Z,9.77
2018-09-06T11:44:50.727Z,8.57
2018-09-06T11:47:19.487Z,10.07
2018-09-06T11:49:48.285Z,10.10
2018-09-06T11:52:17.094Z,11.50
2018-09-06T11:54:45.869Z,10.13
2018-09-06T11:57:15.086Z,10.63
2018-09-06T11:59:43.983Z,15.40
2018-09-06T12:02:12.693Z,16.00
2018-09-06T12:04:41.610Z,9.87
2018-09-06T12:07:10.313Z,11.57
2018-09-06T12:09:40.879Z,13.83
2018-09-06T12:12:09.631Z,11.63
2018-09-06T12:14:38.303Z,13.23
2018-09-06T12:17:07.181Z,9.53
2018-09-06T12:19:36.029Z,9.50
2018-09-06T12:22:04.829Z,8.07
2018-09-06T12:24:33.614Z,10.40
2018-09-06T12:27:02.336Z,11.60
2018-09-06T12:29:31.394Z,10.00
2018-09-06T12:32:00.482Z,12.87
2018-09-06T12:34:29.475Z,7.23
2018-09-06T12:36:58.175Z,8.93
2018-09-06T12:39:26.976Z,11.80
2018-09-06T12:41:55.793Z,9.87
2018-09-06T12:44:24.658Z,15.50
2018-09-06T12:46:53.628Z,13.30
2018-09-06T12:49:22.737Z,14.83
2018-09-06T12:51:51.478Z,7.87
2018-09-06T12:54:20.184Z,8.83
2018-09-06T12:56:48.863Z,7.83
2018-09-06T12:59:17.638Z,6.17
2018-09-06T13:01:46.412Z,9.70
2018-09-06T13:04:15.121Z,6.47
2018-09-06T13:06:43.844Z,8.93
2018-09-06T13:09:12.586Z,12.20
2018-09-06T13:11:41.317Z,7.10
2018-09-06T13:14:10.193Z,7.03
2018-09-06T13:16:39.795Z,8.03
2018-09-06T13:19:08.607Z,9.70
2018-09-06T13:21:37.282Z,21.60
2018-09-06T13:24:06.365Z,8.30
2018-09-06T13:26:35.082Z,13.47
2018-09-06T13:29:03.857Z,12.73
2018-09-06T13:31:32.693Z,10.23
2018-09-06T13:34:01.450Z,9.93
2018-09-06T13:36:30.245Z,10.03
2018-09-06T13:38:58.889Z,9.83
2018-09-06T13:41:27.685Z,9.97
2018-09-06T13:43:56.359Z,7.10
2018-09-06T13:46:25.034Z,14.60
2018-09-06T13:48:53.987Z,13.17
2018-09-06T13:51:22.898Z,11.30
2018-09-06T13:53:51.630Z,11.73
2018-09-06T13:56:20.373Z,11.90
2018-09-06T13:58:49.133Z,14.43
2018-09-06T14:01:18.030Z,13.93
2018-09-06T14:03:46.793Z,16.33
2018-09-06T14:06:15.619Z,13.70
2018-09-06T14:08:44.461Z,11.90
2018-09-06T14:11:13.144Z,10.00
2018-09-06T14:13:42.069Z,9.87
2018-09-06T14:16:10.851Z,11.10
2018-09-06T14:18:39.546Z,10.97
2018-09-06T14:21:08.313Z,9.87
2018-09-06T14:23:36.983Z,10.20
2018-09-06T14:26:05.720Z,10.30
2018-09-06T14:28:34.641Z,12.23
2018-09-06T14:31:03.490Z,11.83
2018-09-06T14:33:32.202Z,10.37
2018-09-06T14:36:00.862Z,9.70
2018-09-06T14:38:29.641Z,9.83
2018-09-06T14:40:58.430Z,20.17
2018-09-06T14:43:27.428Z,13.90
2018-09-06T14:45:56.100Z,11.00
2018-09-06T14:48:24.842Z,11.20
2018-09-06T14:50:53.592Z,11.47
2018-09-06T14:53:22.361Z,11.53
2018-09-06T14:55:51.269Z,14.77
2018-09-06T14:58:19.961Z,8.93
2018-09-06T15:00:48.848Z,11.83
2018-09-06T15:03:17.624Z,19.30
2018-09-06T15:05:46.284Z,9.60
2018-09-06T15:08:14.997Z,10.73
2018-09-06T15:10:43.732Z,12.90
2018-09-06T15:13:12.462Z,17.10
2018-09-06T15:15:41.279Z,8.90
2018-09-06T15:18:10.035Z,9.00
2018-09-06T15:20:38.802Z,14.10
2018-09-06T15:23:07.531Z,12.93
2018-09-06T15:25:36.311Z,14.90
2018-09-06T15:28:04.991Z,11.07
2018-09-06T15:30:33.762Z,10.00
2018-09-06T15:33:02.613Z,18.27
2018-09-06T15:35:31.333Z,10.50
2018-09-06T15:38:00.782Z,13.70
2018-09-06T15:40:29.730Z,9.17
2018-09-06T15:42:58.523Z,11.57
2018-09-06T15:45:27.382Z,14.50
2018-09-06T15:47:56.358Z,15.07
2018-09-06T15:50:25.114Z,14.67
2018-09-06T15:52:54.021Z,13.13
2018-09-06T15:55:22.778Z,13.00
2018-09-06T15:57:51.466Z,10.80
2018-09-06T16:00:20.391Z,15.83
2018-09-06T16:02:49.110Z,10.50
2018-09-06T16:05:17.979Z,10.90
2018-09-06T16:07:46.666Z,10.47
2018-09-06T16:10:15.419Z,13.47
2018-09-06T16:12:44.135Z,8.73
2018-09-06T16:15:13.037Z,8.50
2018-09-06T16:17:41.756Z,12.10
2018-09-06T16:20:10.465Z,12.27
2018-09-06T16:22:39.480Z,11.97
2018-09-06T16:25:08.182Z,10.23
2018-09-06T16:27:36.952Z,15.87
2018-09-06T16:30:06.244Z,12.63
2018-09-06T16:32:34.969Z,17.73
2018-09-06T16:35:03.664Z,12.47
2018-09-06T16:37:32.365Z,11.73
2018-09-06T16:40:01.149Z,14.20
2018-09-06T16:42:29.831Z,18.77
2018-09-06T16:44:58.866Z,10.93
2018-09-06T16:47:27.560Z,13.23
2018-09-06T16:49:56.215Z,9.87
2018-09-06T16:52:24.945Z,12.33
2018-09-06T16:54:53.918Z,14.13
2018-09-06T16:57:22.672Z,14.27
2018-09-06T16:59:51.453Z,15.47
2018-09-06T17:02:20.295Z,11.83
2018-09-06T17:04:49.054Z,10.43
2018-09-06T17:07:17.831Z,13.20
2018-09-06T17:09:46.627Z,15.10
2018-09-06T17:12:15.262Z,14.63
2018-09-06T17:14:43.946Z,11.13
2018-09-06T17:17:12.584Z,10.70
2018-09-06T17:19:41.345Z,13.90
2018-09-06T17:22:10.405Z,14.27
2018-09-06T17:24:39.127Z,21.13
2018-09-06T17:27:07.890Z,13.10
2018-09-06T17:29:36.575Z,12.27
2018-09-06T17:32:05.270Z,12.07
2018-09-06T17:34:33.913Z,14.03
2018-09-06T17:37:02.643Z,17.40
2018-09-06T17:39:31.388Z,16.80
2018-09-06T17:42:00.117Z,16.87
2018-09-06T17:44:28.813Z,13.50
2018-09-06T17:46:57.511Z,18.63
2018-09-06T17:49:26.250Z,23.57
2018-09-06T17:51:54.956Z,17.57
2018-09-06T17:54:23.624Z,16.07
2018-09-06T17:56:52.468Z,23.00
2018-09-06T17:59:21.222Z,20.37
2018-09-06T18:01:50.074Z,16.87
2018-09-06T18:04:18.789Z,17.80
2018-09-06T18:06:47.557Z,15.10
2018-09-06T18:11:58.308Z,16.73
2018-09-06T18:14:27.173Z,17.17
2018-09-06T18:16:56.184Z,15.67
2018-09-06T18:19:24.903Z,17.93
2018-09-06T18:21:53.633Z,19.47
2018-09-06T18:24:22.452Z,16.17
2018-09-06T18:26:51.258Z,18.17
2018-09-06T18:29:20.018Z,16.73
2018-09-06T18:31:48.807Z,16.10
2018-09-06T18:34:17.558Z,17.90
2018-09-06T18:36:46.391Z,15.13
2018-09-06T18:39:15.198Z,19.40
2018-09-06T18:41:43.941Z,17.10
2018-09-06T18:44:12.710Z,13.73
2018-09-06T18:46:41.416Z,21.67
2018-09-06T18:49:10.237Z,15.13
2018-09-06T18:51:39.028Z,12.77
2018-09-06T18:54:07.734Z,15.60
2018-09-06T18:56:36.515Z,17.73
2018-09-06T18:59:05.567Z,15.90
2018-09-06T19:01:34.586Z,14.37
2018-09-06T19:04:03.259Z,18.13
2018-09-06T19:06:31.928Z,24.57
2018-09-06T19:09:00.738Z,19.40
2018-09-06T19:11:29.369Z,16.97
2018-09-06T19:13:58.234Z,26.73
2018-09-06T19:16:26.950Z,17.87
2018-09-06T19:18:55.875Z,18.03
2018-09-06T19:21:24.579Z,13.77
2018-09-06T19:23:53.561Z,19.90
2018-09-06T19:26:22.556Z,17.33
2018-09-06T19:28:51.196Z,19.30
2018-09-06T19:31:19.938Z,16.93
2018-09-06T19:33:48.737Z,16.00
2018-09-06T19:36:17.507Z,27.60
2018-09-06T19:38:46.326Z,18.27
2018-09-06T19:41:15.043Z,21.20
2018-09-06T19:43:43.715Z,19.70
2018-09-06T19:46:12.433Z,25.20
2018-09-06T19:48:41.252Z,24.93
2018-09-06T19:51:10.262Z,16.40
2018-09-06T19:53:39.118Z,17.27
2018-09-06T19:56:07.900Z,23.20
2018-09-06T19:58:36.621Z,21.97
2018-09-06T20:01:05.390Z,26.53
2018-09-06T20:03:35.139Z,18.30
2018-09-06T20:06:03.907Z,21.83
2018-09-06T20:08:32.693Z,26.03
2018-09-06T20:11:01.590Z,24.50
2018-09-06T20:13:30.264Z,22.60
2018-09-06T20:15:59.695Z,20.23
2018-09-06T20:18:28.551Z,21.57
2018-09-06T20:20:57.261Z,24.60
2018-09-06T20:23:26.086Z,21.20
2018-09-06T20:25:54.996Z,23.77
2018-09-06T20:28:23.898Z,20.90
2018-09-06T20:30:52.625Z,20.30
2018-09-06T20:33:21.379Z,17.30
2018-09-06T20:35:50.315Z,18.53
2018-09-06T20:38:19.003Z,19.33
2018-09-06T20:40:47.895Z,18.27
2018-09-06T20:43:16.667Z,17.87
2018-09-06T20:45:45.571Z,18.97
2018-09-06T20:48:15.318Z,20.00
2018-09-06T20:50:44.028Z,18.93
2018-09-06T20:53:13.125Z,15.57
2018-09-06T20:55:41.822Z,19.70
2018-09-06T20:58:10.525Z,19.43
2018-09-06T21:00:39.337Z,20.30
2018-09-06T21:03:08.149Z,27.00
2018-09-06T21:05:36.880Z,20.57
2018-09-06T21:08:05.590Z,16.50
2018-09-06T21:10:34.365Z,17.90
2018-09-06T21:13:03.165Z,19.33
2018-09-06T21:15:32.077Z,26.83
2018-09-06T21:18:00.984Z,21.17
2018-09-06T21:20:29.714Z,15.67
2018-09-06T21:22:58.743Z,13.10
2018-09-06T21:25:27.454Z,14.63
2018-09-06T21:27:56.542Z,21.77
2018-09-06T21:30:25.321Z,14.80
2018-09-06T21:32:54.024Z,17.23
2018-09-06T21:35:22.754Z,16.57
2018-09-06T21:37:51.600Z,18.10
2018-09-06T21:40:20.397Z,15.17
2018-09-06T21:42:49.329Z,15.27
2018-09-06T21:45:18.246Z,16.43
2018-09-06T21:47:47.103Z,15.63
2018-09-06T21:50:16.130Z,14.00
2018-09-06T21:52:44.867Z,17.03
2018-09-06T21:55:13.574Z,16.53
2018-09-06T21:57:42.355Z,13.90
2018-09-06T22:00:11.417Z,17.10
2018-09-06T22:02:45.724Z,22.37
2018-09-06T22:05:14.473Z,20.90
2018-09-06T22:07:43.224Z,20.23
2018-09-06T22:10:12.792Z,22.07
2018-09-06T22:12:41.655Z,27.90
2018-09-06T22:15:10.468Z,21.43
2018-09-06T22:17:39.234Z,22.33
2018-09-06T22:20:07.985Z,14.70
2018-09-06T22:22:36.714Z,18.40
2018-09-06T22:25:05.607Z,21.73
2018-09-06T22:27:34.313Z,15.43
2018-09-06T22:30:03.299Z,17.83
2018-09-06T22:32:32.186Z,23.90
2018-09-06T22:35:00.962Z,19.50
2018-09-06T22:37:29.738Z,18.80
2018-09-06T22:39:58.557Z,18.90
2018-09-06T22:42:27.229Z,18.90
2018-09-06T22:44:55.884Z,18.77
2018-09-06T22:47:24.731Z,19.77
2018-09-06T22:49:53.502Z,21.43
2018-09-06T22:52:22.488Z,19.00
2018-09-06T22:54:51.146Z,28.73
2018-09-06T22:57:19.954Z,20.03
2018-09-06T22:59:48.666Z,25.50
2018-09-06T23:02:17.776Z,31.13
2018-09-06T23:04:46.634Z,22.87
2018-09-06T23:07:15.475Z,18.60
2018-09-06T23:09:44.202Z,17.70
2018-09-06T23:12:13.028Z,30.17
2018-09-06T23:14:41.730Z,20.10
2018-09-06T23:17:10.464Z,23.57
2018-09-06T23:19:39.289Z,24.07
2018-09-06T23:22:08.043Z,30.17
2018-09-06T23:24:37.075Z,26.73
2018-09-06T23:27:05.918Z,21.10
2018-09-06T23:29:34.616Z,24.50
2018-09-06T23:32:03.847Z,27.93
2018-09-06T23:34:35.677Z,21.00
2018-09-06T23:37:05.642Z,23.80
2018-09-06T23:39:35.001Z,22.30
2018-09-06T23:42:04.035Z,19.60
2018-09-06T23:44:32.783Z,20.17
2018-09-06T23:47:01.736Z,18.77
2018-09-06T23:49:31.160Z,24.20
2018-09-06T23:52:00.324Z,17.00
2018-09-06T23:54:30.122Z,21.70
2018-09-06T23:56:58.809Z,15.67
2018-09-06T23:59:27.584Z,22.57
